sensor_id;sensor_type;location;lat;lon;timestamp;P1;durP1;ratioP1;P2;durP2;ratioP2
51194;SDS011;37259;49.972;19.850;2022-12-19T00:00:20;47.6;;;27.5;;
51194;SDS011;37259;49.972;19.850;2022-12-19T00:01:21;47.6;;;27.5;;
51194;SDS011;37259;49.972;19.850;2022-12-19T00:02:20;47.6;;;27.5;;
51194;SDS011;37259;49.972;19.850;2022-12-19T00:03:20;47.6;;;27.5;;
51194;SDS011;37259;49.972;19.850;2022-12-19T00:04:20;47.6;;;27.5;;
51194;SDS011;37259;49.972;19.850;2022-12-19T00:05:20;47.6;;;27.5;;
51194;SDS011;37259;49.972;19.850;2022-12-19T00:06:20;47.6;;;27.5;;
51194;SDS011;37259;49.972;19.850;2022-12-19T00:07:20;47.6;;;27.5;;
51194;SDS011;37259;49.972;19.850;2022-12-19T00:08:20;47.6;;;27.5;;
51194;SDS011;37259;49.972;19.850;2022-12-19T00:09:20;47.6;;;27.5;;
51194;SDS011;37259;49.972;19.850;2022-12-19T00:10:20;47.6;;;27.5;;
51194;SDS011;37259;49.972;19.850;2022-12-19T00:11:21;47.6;;;27.5;;
51194;SDS011;37259;49.972;19.850;2022-12-19T00:12:20;47.6;;;27.5;;
51194;SDS011;37259;49.972;19.850;2022-12-19T00:13:20;47.6;;;27.5;;
51194;SDS011;37259;49.972;19.850;2022-12-19T00:14:20;38.6;;;28.3;;
51194;SDS011;37259;49.972;19.850;2022-12-19T00:15:20;38.6;;;28.3;;
51194;SDS011;37259;49.972;19.850;2022-12-19T00:16:20;38.6;;;28.3;;
51194;SDS011;37259;49.972;19.850;2022-12-19T00:17:20;38.6;;;28.3;;
51194;SDS011;37259;49.972;19.850;2022-12-19T00:18:20;38.6;;;28.3;;
51194;SDS011;37259;49.972;19.850;2022-12-19T00:19:20;38.6;;;28.3;;
51194;SDS011;37259;49.972;19.850;2022-12-19T00:20:20;38.6;;;28.3;;
51194;SDS011;37259;49.972;19.850;2022-12-19T00:21:20;38.6;;;28.3;;
51194;SDS011;37259;49.972;19.850;2022-12-19T00:22:20;38.6;;;28.3;;
51194;SDS011;37259;49.972;19.850;2022-12-19T00:23:20;38.6;;;28.3;;
51194;SDS011;37259;49.972;19.850;2022-12-19T00:24:20;38.6;;;28.3;;
51194;SDS011;37259;49.972;19.850;2022-12-19T00:25:20;38.6;;;28.3;;
51194;SDS011;37259;49.972;19.850;2022-12-19T00:26:20;38.6;;;28.3;;
51194;SDS011;37259;49.972;19.850;2022-12-19T00:27:20;38.6;;;28.3;;
51194;SDS011;37259;49.972;19.850;2022-12-19T00:28:20;38.6;;;28.3;;
51194;SDS011;37259;49.972;19.850;2022-12-19T00:29:20;38.6;;;28.3;;
51194;SDS011;37259;49.972;19.850;2022-12-19T00:30:20;38.6;;;28.3;;
51194;SDS011;37259;49.972;19.850;2022-12-19T00:31:20;38.6;;;28.3;;
51194;SDS011;37259;49.972;19.850;2022-12-19T00:32:20;38.6;;;28.3;;
51194;SDS011;37259;49.972;19.850;2022-12-19T00:33:20;38.6;;;28.3;;
51194;SDS011;37259;49.972;19.850;2022-12-19T00:34:20;38.6;;;28.3;;
51194;SDS011;37259;49.972;19.850;2022-12-19T00:35:20;38.6;;;28.3;;
51194;SDS011;37259;49.972;19.850;2022-12-19T00:36:20;38.6;;;28.3;;
51194;SDS011;37259;49.972;19.850;2022-12-19T00:37:20;38.6;;;28.3;;
51194;SDS011;37259;49.972;19.850;2022-12-19T00:38:20;38.6;;;28.3;;
51194;SDS011;37259;49.972;19.850;2022-12-19T00:39:20;38.6;;;28.3;;
51194;SDS011;37259;49.972;19.850;2022-12-19T00:40:20;38.6;;;28.3;;
51194;SDS011;37259;49.972;19.850;2022-12-19T00:41:20;38.6;;;28.3;;
51194;SDS011;37259;49.972;19.850;2022-12-19T00:42:20;38.6;;;28.3;;
51194;SDS011;37259;49.972;19.850;2022-12-19T00:43:20;38.6;;;28.3;;
51194;SDS011;37259;49.972;19.850;2022-12-19T00:44:20;39.6;;;26.9;;
51194;SDS011;37259;49.972;19.850;2022-12-19T00:45:20;39.6;;;26.9;;
51194;SDS011;37259;49.972;19.850;2022-12-19T00:46:20;39.6;;;26.9;;
51194;SDS011;37259;49.972;19.850;2022-12-19T00:47:20;39.6;;;26.9;;
51194;SDS011;37259;49.972;19.850;2022-12-19T00:48:20;39.6;;;26.9;;
51194;SDS011;37259;49.972;19.850;2022-12-19T00:49:20;39.6;;;26.9;;
51194;SDS011;37259;49.972;19.850;2022-12-19T00:50:20;39.6;;;26.9;;
51194;SDS011;37259;49.972;19.850;2022-12-19T00:51:21;39.6;;;26.9;;
51194;SDS011;37259;49.972;19.850;2022-12-19T00:52:20;39.6;;;26.9;;
51194;SDS011;37259;49.972;19.850;2022-12-19T00:53:20;39.6;;;26.9;;
51194;SDS011;37259;49.972;19.850;2022-12-19T00:54:20;39.6;;;26.9;;
51194;SDS011;37259;49.972;19.850;2022-12-19T00:55:20;39.6;;;26.9;;
51194;SDS011;37259;49.972;19.850;2022-12-19T00:56:20;39.6;;;26.9;;
51194;SDS011;37259;49.972;19.850;2022-12-19T00:57:20;39.6;;;26.9;;
51194;SDS011;37259;49.972;19.850;2022-12-19T00:58:20;39.6;;;26.9;;
51194;SDS011;37259;49.972;19.850;2022-12-19T00:59:20;39.6;;;26.9;;
51194;SDS011;37259;49.972;19.850;2022-12-19T01:00:20;39.6;;;26.9;;
51194;SDS011;37259;49.972;19.850;2022-12-19T01:01:21;39.6;;;26.9;;
51194;SDS011;37259;49.972;19.850;2022-12-19T01:02:20;39.6;;;26.9;;
51194;SDS011;37259;49.972;19.850;2022-12-19T01:03:20;39.6;;;26.9;;
51194;SDS011;37259;49.972;19.850;2022-12-19T01:04:20;39.6;;;26.9;;
51194;SDS011;37259;49.972;19.850;2022-12-19T01:05:20;39.6;;;26.9;;
51194;SDS011;37259;49.972;19.850;2022-12-19T01:06:20;39.6;;;26.9;;
51194;SDS011;37259;49.972;19.850;2022-12-19T01:07:20;39.6;;;26.9;;
51194;SDS011;37259;49.972;19.850;2022-12-19T01:08:20;39.6;;;26.9;;
51194;SDS011;37259;49.972;19.850;2022-12-19T01:09:20;39.6;;;26.9;;
51194;SDS011;37259;49.972;19.850;2022-12-19T01:10:20;39.6;;;26.9;;
51194;SDS011;37259;49.972;19.850;2022-12-19T01:11:21;39.6;;;26.9;;
51194;SDS011;37259;49.972;19.850;2022-12-19T01:12:20;39.6;;;26.9;;
51194;SDS011;37259;49.972;19.850;2022-12-19T01:13:20;39.6;;;26.9;;
51194;SDS011;37259;49.972;19.850;2022-12-19T01:14:20;51.2;;;28.9;;
51194;SDS011;37259;49.972;19.850;2022-12-19T01:15:20;51.2;;;28.9;;
51194;SDS011;37259;49.972;19.850;2022-12-19T01:16:20;51.2;;;28.9;;
51194;SDS011;37259;49.972;19.850;2022-12-19T01:17:20;51.2;;;28.9;;
51194;SDS011;37259;49.972;19.850;2022-12-19T01:18:20;51.2;;;28.9;;
51194;SDS011;37259;49.972;19.850;2022-12-19T01:19:20;51.2;;;28.9;;
51194;SDS011;37259;49.972;19.850;2022-12-19T01:20:20;51.2;;;28.9;;
51194;SDS011;37259;49.972;19.850;2022-12-19T01:21:20;51.2;;;28.9;;
51194;SDS011;37259;49.972;19.850;2022-12-19T01:22:20;51.2;;;28.9;;
51194;SDS011;37259;49.972;19.850;2022-12-19T01:23:20;51.2;;;28.9;;
51194;SDS011;37259;49.972;19.850;2022-12-19T01:24:20;51.2;;;28.9;;
51194;SDS011;37259;49.972;19.850;2022-12-19T01:25:20;51.2;;;28.9;;
51194;SDS011;37259;49.972;19.850;2022-12-19T01:26:20;51.2;;;28.9;;
51194;SDS011;37259;49.972;19.850;2022-12-19T01:27:20;51.2;;;28.9;;
51194;SDS011;37259;49.972;19.850;2022-12-19T01:28:20;51.2;;;28.9;;
51194;SDS011;37259;49.972;19.850;2022-12-19T01:29:20;51.2;;;28.9;;
51194;SDS011;37259;49.972;19.850;2022-12-19T01:30:20;51.2;;;28.9;;
51194;SDS011;37259;49.972;19.850;2022-12-19T01:31:20;51.2;;;28.9;;
51194;SDS011;37259;49.972;19.850;2022-12-19T01:32:20;51.2;;;28.9;;
51194;SDS011;37259;49.972;19.850;2022-12-19T01:33:20;51.2;;;28.9;;
51194;SDS011;37259;49.972;19.850;2022-12-19T01:34:20;51.2;;;28.9;;
51194;SDS011;37259;49.972;19.850;2022-12-19T01:35:20;51.2;;;28.9;;
51194;SDS011;37259;49.972;19.850;2022-12-19T01:36:20;51.2;;;28.9;;
51194;SDS011;37259;49.972;19.850;2022-12-19T01:37:20;51.2;;;28.9;;
51194;SDS011;37259;49.972;19.850;2022-12-19T01:38:20;51.2;;;28.9;;
51194;SDS011;37259;49.972;19.850;2022-12-19T01:39:20;51.2;;;28.9;;
51194;SDS011;37259;49.972;19.850;2022-12-19T01:40:20;51.2;;;28.9;;
51194;SDS011;37259;49.972;19.850;2022-12-19T01:41:20;51.2;;;28.9;;
51194;SDS011;37259;49.972;19.850;2022-12-19T01:42:21;51.2;;;28.9;;
51194;SDS011;37259;49.972;19.850;2022-12-19T01:43:20;51.2;;;28.9;;
51194;SDS011;37259;49.972;19.850;2022-12-19T01:44:22;42.6;;;24.9;;
51194;SDS011;37259;49.972;19.850;2022-12-19T01:45:24;42.6;;;24.9;;
51194;SDS011;37259;49.972;19.850;2022-12-19T01:46:20;42.6;;;24.9;;
51194;SDS011;37259;49.972;19.850;2022-12-19T01:47:20;42.6;;;24.9;;
51194;SDS011;37259;49.972;19.850;2022-12-19T01:48:20;42.6;;;24.9;;
51194;SDS011;37259;49.972;19.850;2022-12-19T01:49:20;42.6;;;24.9;;
51194;SDS011;37259;49.972;19.850;2022-12-19T01:50:22;42.6;;;24.9;;
51194;SDS011;37259;49.972;19.850;2022-12-19T01:51:21;42.6;;;24.9;;
51194;SDS011;37259;49.972;19.850;2022-12-19T01:52:20;42.6;;;24.9;;
51194;SDS011;37259;49.972;19.850;2022-12-19T01:53:20;42.6;;;24.9;;
51194;SDS011;37259;49.972;19.850;2022-12-19T01:54:21;42.6;;;24.9;;
51194;SDS011;37259;49.972;19.850;2022-12-19T01:55:20;42.6;;;24.9;;
51194;SDS011;37259;49.972;19.850;2022-12-19T01:56:21;42.6;;;24.9;;
51194;SDS011;37259;49.972;19.850;2022-12-19T01:57:20;42.6;;;24.9;;
51194;SDS011;37259;49.972;19.850;2022-12-19T01:58:20;42.6;;;24.9;;
51194;SDS011;37259;49.972;19.850;2022-12-19T01:59:23;42.6;;;24.9;;
51194;SDS011;37259;49.972;19.850;2022-12-19T02:00:20;42.6;;;24.9;;
51194;SDS011;37259;49.972;19.850;2022-12-19T02:01:20;42.6;;;24.9;;
51194;SDS011;37259;49.972;19.850;2022-12-19T02:02:20;42.6;;;24.9;;
51194;SDS011;37259;49.972;19.850;2022-12-19T02:03:21;42.6;;;24.9;;
51194;SDS011;37259;49.972;19.850;2022-12-19T02:04:20;42.6;;;24.9;;
51194;SDS011;37259;49.972;19.850;2022-12-19T02:05:20;42.6;;;24.9;;
51194;SDS011;37259;49.972;19.850;2022-12-19T02:06:20;42.6;;;24.9;;
51194;SDS011;37259;49.972;19.850;2022-12-19T02:07:20;42.6;;;24.9;;
51194;SDS011;37259;49.972;19.850;2022-12-19T02:08:20;42.6;;;24.9;;
51194;SDS011;37259;49.972;19.850;2022-12-19T02:09:20;42.6;;;24.9;;
51194;SDS011;37259;49.972;19.850;2022-12-19T02:10:20;42.6;;;24.9;;
51194;SDS011;37259;49.972;19.850;2022-12-19T02:11:20;42.6;;;24.9;;
51194;SDS011;37259;49.972;19.850;2022-12-19T02:13:20;42.6;;;24.9;;
51194;SDS011;37259;49.972;19.850;2022-12-19T02:14:20;38.3;;;24.1;;
51194;SDS011;37259;49.972;19.850;2022-12-19T02:15:20;38.3;;;24.1;;
51194;SDS011;37259;49.972;19.850;2022-12-19T02:16:23;38.3;;;24.1;;
51194;SDS011;37259;49.972;19.850;2022-12-19T02:17:26;38.3;;;24.1;;
51194;SDS011;37259;49.972;19.850;2022-12-19T02:18:23;38.3;;;24.1;;
51194;SDS011;37259;49.972;19.850;2022-12-19T02:19:26;38.3;;;24.1;;
51194;SDS011;37259;49.972;19.850;2022-12-19T02:20:26;38.3;;;24.1;;
51194;SDS011;37259;49.972;19.850;2022-12-19T02:21:29;38.3;;;24.1;;
51194;SDS011;37259;49.972;19.850;2022-12-19T02:22:21;38.3;;;24.1;;
51194;SDS011;37259;49.972;19.850;2022-12-19T02:23:26;38.3;;;24.1;;
51194;SDS011;37259;49.972;19.850;2022-12-19T02:25:25;38.3;;;24.1;;
51194;SDS011;37259;49.972;19.850;2022-12-19T02:26:25;38.3;;;24.1;;
51194;SDS011;37259;49.972;19.850;2022-12-19T02:27:25;38.3;;;24.1;;
51194;SDS011;37259;49.972;19.850;2022-12-19T02:28:26;38.3;;;24.1;;
51194;SDS011;37259;49.972;19.850;2022-12-19T02:29:23;38.3;;;24.1;;
51194;SDS011;37259;49.972;19.850;2022-12-19T02:30:32;38.3;;;24.1;;
51194;SDS011;37259;49.972;19.850;2022-12-19T02:31:21;38.3;;;24.1;;
51194;SDS011;37259;49.972;19.850;2022-12-19T02:32:21;38.3;;;24.1;;
51194;SDS011;37259;49.972;19.850;2022-12-19T02:33:22;38.3;;;24.1;;
51194;SDS011;37259;49.972;19.850;2022-12-19T02:34:21;38.3;;;24.1;;
51194;SDS011;37259;49.972;19.850;2022-12-19T02:35:25;38.3;;;24.1;;
51194;SDS011;37259;49.972;19.850;2022-12-19T02:36:20;38.3;;;24.1;;
51194;SDS011;37259;49.972;19.850;2022-12-19T02:37:21;38.3;;;24.1;;
51194;SDS011;37259;49.972;19.850;2022-12-19T02:38:21;38.3;;;24.1;;
51194;SDS011;37259;49.972;19.850;2022-12-19T02:39:22;38.3;;;24.1;;
51194;SDS011;37259;49.972;19.850;2022-12-19T02:40:20;38.3;;;24.1;;
51194;SDS011;37259;49.972;19.850;2022-12-19T02:41:21;38.3;;;24.1;;
51194;SDS011;37259;49.972;19.850;2022-12-19T02:42:21;38.3;;;24.1;;
51194;SDS011;37259;49.972;19.850;2022-12-19T02:43:20;38.3;;;24.1;;
51194;SDS011;37259;49.972;19.850;2022-12-19T02:44:20;37.8;;;22.1;;
51194;SDS011;37259;49.972;19.850;2022-12-19T02:45:20;37.8;;;22.1;;
51194;SDS011;37259;49.972;19.850;2022-12-19T02:46:20;37.8;;;22.1;;
51194;SDS011;37259;49.972;19.850;2022-12-19T02:47:20;37.8;;;22.1;;
51194;SDS011;37259;49.972;19.850;2022-12-19T02:48:20;37.8;;;22.1;;
51194;SDS011;37259;49.972;19.850;2022-12-19T02:49:20;37.8;;;22.1;;
51194;SDS011;37259;49.972;19.850;2022-12-19T02:50:20;37.8;;;22.1;;
51194;SDS011;37259;49.972;19.850;2022-12-19T02:51:20;37.8;;;22.1;;
51194;SDS011;37259;49.972;19.850;2022-12-19T02:52:51;37.8;;;22.1;;
51194;SDS011;37259;49.972;19.850;2022-12-19T02:53:20;37.8;;;22.1;;
51194;SDS011;37259;49.972;19.850;2022-12-19T02:54:20;37.8;;;22.1;;
51194;SDS011;37259;49.972;19.850;2022-12-19T02:55:20;37.8;;;22.1;;
51194;SDS011;37259;49.972;19.850;2022-12-19T02:56:22;37.8;;;22.1;;
51194;SDS011;37259;49.972;19.850;2022-12-19T02:57:27;37.8;;;22.1;;
51194;SDS011;37259;49.972;19.850;2022-12-19T02:58:28;37.8;;;22.1;;
51194;SDS011;37259;49.972;19.850;2022-12-19T02:59:24;37.8;;;22.1;;
51194;SDS011;37259;49.972;19.850;2022-12-19T03:00:20;37.8;;;22.1;;
51194;SDS011;37259;49.972;19.850;2022-12-19T03:01:23;37.8;;;22.1;;
51194;SDS011;37259;49.972;19.850;2022-12-19T03:02:22;37.8;;;22.1;;
51194;SDS011;37259;49.972;19.850;2022-12-19T03:03:20;37.8;;;22.1;;
51194;SDS011;37259;49.972;19.850;2022-12-19T03:04:23;37.8;;;22.1;;
51194;SDS011;37259;49.972;19.850;2022-12-19T03:05:21;37.8;;;22.1;;
51194;SDS011;37259;49.972;19.850;2022-12-19T03:06:22;37.8;;;22.1;;
51194;SDS011;37259;49.972;19.850;2022-12-19T03:07:21;37.8;;;22.1;;
51194;SDS011;37259;49.972;19.850;2022-12-19T03:08:21;37.8;;;22.1;;
51194;SDS011;37259;49.972;19.850;2022-12-19T03:09:23;37.8;;;22.1;;
51194;SDS011;37259;49.972;19.850;2022-12-19T03:10:21;37.8;;;22.1;;
51194;SDS011;37259;49.972;19.850;2022-12-19T03:11:20;37.8;;;22.1;;
51194;SDS011;37259;49.972;19.850;2022-12-19T03:12:21;37.8;;;22.1;;
51194;SDS011;37259;49.972;19.850;2022-12-19T03:13:20;39.4;;;24.1;;
51194;SDS011;37259;49.972;19.850;2022-12-19T03:14:20;39.4;;;24.1;;
51194;SDS011;37259;49.972;19.850;2022-12-19T03:15:20;39.4;;;24.1;;
51194;SDS011;37259;49.972;19.850;2022-12-19T03:16:20;39.4;;;24.1;;
51194;SDS011;37259;49.972;19.850;2022-12-19T03:17:20;39.4;;;24.1;;
51194;SDS011;37259;49.972;19.850;2022-12-19T03:18:20;39.4;;;24.1;;
51194;SDS011;37259;49.972;19.850;2022-12-19T03:19:20;39.4;;;24.1;;
51194;SDS011;37259;49.972;19.850;2022-12-19T03:20:21;39.4;;;24.1;;
51194;SDS011;37259;49.972;19.850;2022-12-19T03:21:20;39.4;;;24.1;;
51194;SDS011;37259;49.972;19.850;2022-12-19T03:22:20;39.4;;;24.1;;
51194;SDS011;37259;49.972;19.850;2022-12-19T03:23:20;39.4;;;24.1;;
51194;SDS011;37259;49.972;19.850;2022-12-19T03:24:20;39.4;;;24.1;;
51194;SDS011;37259;49.972;19.850;2022-12-19T03:25:20;39.4;;;24.1;;
51194;SDS011;37259;49.972;19.850;2022-12-19T03:26:20;39.4;;;24.1;;
51194;SDS011;37259;49.972;19.850;2022-12-19T03:27:21;39.4;;;24.1;;
51194;SDS011;37259;49.972;19.850;2022-12-19T03:28:21;39.4;;;24.1;;
51194;SDS011;37259;49.972;19.850;2022-12-19T03:29:20;39.4;;;24.1;;
51194;SDS011;37259;49.972;19.850;2022-12-19T03:30:20;39.4;;;24.1;;
51194;SDS011;37259;49.972;19.850;2022-12-19T03:31:20;39.4;;;24.1;;
51194;SDS011;37259;49.972;19.850;2022-12-19T03:32:20;39.4;;;24.1;;
51194;SDS011;37259;49.972;19.850;2022-12-19T03:33:20;39.4;;;24.1;;
51194;SDS011;37259;49.972;19.850;2022-12-19T03:34:20;39.4;;;24.1;;
51194;SDS011;37259;49.972;19.850;2022-12-19T03:35:21;39.4;;;24.1;;
51194;SDS011;37259;49.972;19.850;2022-12-19T03:36:21;39.4;;;24.1;;
51194;SDS011;37259;49.972;19.850;2022-12-19T03:37:21;39.4;;;24.1;;
51194;SDS011;37259;49.972;19.850;2022-12-19T03:38:20;39.4;;;24.1;;
51194;SDS011;37259;49.972;19.850;2022-12-19T03:39:20;39.4;;;24.1;;
51194;SDS011;37259;49.972;19.850;2022-12-19T03:40:21;39.4;;;24.1;;
51194;SDS011;37259;49.972;19.850;2022-12-19T03:41:20;39.4;;;24.1;;
51194;SDS011;37259;49.972;19.850;2022-12-19T03:42:20;39.4;;;24.1;;
51194;SDS011;37259;49.972;19.850;2022-12-19T03:43:20;40.6;;;25.4;;
51194;SDS011;37259;49.972;19.850;2022-12-19T03:44:20;40.6;;;25.4;;
51194;SDS011;37259;49.972;19.850;2022-12-19T03:45:20;40.6;;;25.4;;
51194;SDS011;37259;49.972;19.850;2022-12-19T03:46:21;40.6;;;25.4;;
51194;SDS011;37259;49.972;19.850;2022-12-19T03:47:21;40.6;;;25.4;;
51194;SDS011;37259;49.972;19.850;2022-12-19T03:48:21;40.6;;;25.4;;
51194;SDS011;37259;49.972;19.850;2022-12-19T03:49:20;40.6;;;25.4;;
51194;SDS011;37259;49.972;19.850;2022-12-19T03:50:20;40.6;;;25.4;;
51194;SDS011;37259;49.972;19.850;2022-12-19T03:51:21;40.6;;;25.4;;
51194;SDS011;37259;49.972;19.850;2022-12-19T03:52:23;40.6;;;25.4;;
51194;SDS011;37259;49.972;19.850;2022-12-19T03:53:23;40.6;;;25.4;;
51194;SDS011;37259;49.972;19.850;2022-12-19T03:54:20;40.6;;;25.4;;
51194;SDS011;37259;49.972;19.850;2022-12-19T03:55:20;40.6;;;25.4;;
51194;SDS011;37259;49.972;19.850;2022-12-19T03:56:21;40.6;;;25.4;;
51194;SDS011;37259;49.972;19.850;2022-12-19T03:57:22;40.6;;;25.4;;
51194;SDS011;37259;49.972;19.850;2022-12-19T03:58:22;40.6;;;25.4;;
51194;SDS011;37259;49.972;19.850;2022-12-19T03:59:21;40.6;;;25.4;;
51194;SDS011;37259;49.972;19.850;2022-12-19T04:00:21;40.6;;;25.4;;
51194;SDS011;37259;49.972;19.850;2022-12-19T04:01:20;40.6;;;25.4;;
51194;SDS011;37259;49.972;19.850;2022-12-19T04:02:20;40.6;;;25.4;;
51194;SDS011;37259;49.972;19.850;2022-12-19T04:03:20;40.6;;;25.4;;
51194;SDS011;37259;49.972;19.850;2022-12-19T04:04:20;40.6;;;25.4;;
51194;SDS011;37259;49.972;19.850;2022-12-19T04:05:20;40.6;;;25.4;;
51194;SDS011;37259;49.972;19.850;2022-12-19T04:06:20;40.6;;;25.4;;
51194;SDS011;37259;49.972;19.850;2022-12-19T04:07:20;40.6;;;25.4;;
51194;SDS011;37259;49.972;19.850;2022-12-19T04:08:20;40.6;;;25.4;;
51194;SDS011;37259;49.972;19.850;2022-12-19T04:09:20;40.6;;;25.4;;
51194;SDS011;37259;49.972;19.850;2022-12-19T04:10:20;40.6;;;25.4;;
51194;SDS011;37259;49.972;19.850;2022-12-19T04:11:20;40.6;;;25.4;;
51194;SDS011;37259;49.972;19.850;2022-12-19T04:12:20;40.6;;;25.4;;
51194;SDS011;37259;49.972;19.850;2022-12-19T04:13:21;42.8;;;26.4;;
51194;SDS011;37259;49.972;19.850;2022-12-19T04:14:22;42.8;;;26.4;;
51194;SDS011;37259;49.972;19.850;2022-12-19T04:15:20;42.8;;;26.4;;
51194;SDS011;37259;49.972;19.850;2022-12-19T04:16:21;42.8;;;26.4;;
51194;SDS011;37259;49.972;19.850;2022-12-19T04:17:22;42.8;;;26.4;;
51194;SDS011;37259;49.972;19.850;2022-12-19T04:18:20;42.8;;;26.4;;
51194;SDS011;37259;49.972;19.850;2022-12-19T04:19:23;42.8;;;26.4;;
51194;SDS011;37259;49.972;19.850;2022-12-19T04:20:20;42.8;;;26.4;;
51194;SDS011;37259;49.972;19.850;2022-12-19T04:21:21;42.8;;;26.4;;
51194;SDS011;37259;49.972;19.850;2022-12-19T04:22:21;42.8;;;26.4;;
51194;SDS011;37259;49.972;19.850;2022-12-19T04:23:20;42.8;;;26.4;;
51194;SDS011;37259;49.972;19.850;2022-12-19T04:24:20;42.8;;;26.4;;
51194;SDS011;37259;49.972;19.850;2022-12-19T04:25:21;42.8;;;26.4;;
51194;SDS011;37259;49.972;19.850;2022-12-19T04:26:20;42.8;;;26.4;;
51194;SDS011;37259;49.972;19.850;2022-12-19T04:27:20;42.8;;;26.4;;
51194;SDS011;37259;49.972;19.850;2022-12-19T04:28:21;42.8;;;26.4;;
51194;SDS011;37259;49.972;19.850;2022-12-19T04:29:20;42.8;;;26.4;;
51194;SDS011;37259;49.972;19.850;2022-12-19T04:30:20;42.8;;;26.4;;
51194;SDS011;37259;49.972;19.850;2022-12-19T04:31:20;42.8;;;26.4;;
51194;SDS011;37259;49.972;19.850;2022-12-19T04:32:20;42.8;;;26.4;;
51194;SDS011;37259;49.972;19.850;2022-12-19T04:33:20;42.8;;;26.4;;
51194;SDS011;37259;49.972;19.850;2022-12-19T04:34:20;42.8;;;26.4;;
51194;SDS011;37259;49.972;19.850;2022-12-19T04:35:20;42.8;;;26.4;;
51194;SDS011;37259;49.972;19.850;2022-12-19T04:36:20;42.8;;;26.4;;
51194;SDS011;37259;49.972;19.850;2022-12-19T04:37:20;42.8;;;26.4;;
51194;SDS011;37259;49.972;19.850;2022-12-19T04:38:20;42.8;;;26.4;;
51194;SDS011;37259;49.972;19.850;2022-12-19T04:39:20;42.8;;;26.4;;
51194;SDS011;37259;49.972;19.850;2022-12-19T04:40:20;42.8;;;26.4;;
51194;SDS011;37259;49.972;19.850;2022-12-19T04:41:20;42.8;;;26.4;;
51194;SDS011;37259;49.972;19.850;2022-12-19T04:42:20;42.8;;;26.4;;
51194;SDS011;37259;49.972;19.850;2022-12-19T04:43:20;38.3;;;24.2;;
51194;SDS011;37259;49.972;19.850;2022-12-19T04:44:20;38.3;;;24.2;;
51194;SDS011;37259;49.972;19.850;2022-12-19T04:45:20;38.3;;;24.2;;
51194;SDS011;37259;49.972;19.850;2022-12-19T04:46:20;38.3;;;24.2;;
51194;SDS011;37259;49.972;19.850;2022-12-19T04:47:20;38.3;;;24.2;;
51194;SDS011;37259;49.972;19.850;2022-12-19T04:48:20;38.3;;;24.2;;
51194;SDS011;37259;49.972;19.850;2022-12-19T04:49:20;38.3;;;24.2;;
51194;SDS011;37259;49.972;19.850;2022-12-19T04:50:20;38.3;;;24.2;;
51194;SDS011;37259;49.972;19.850;2022-12-19T04:51:20;38.3;;;24.2;;
51194;SDS011;37259;49.972;19.850;2022-12-19T04:52:20;38.3;;;24.2;;
51194;SDS011;37259;49.972;19.850;2022-12-19T04:53:20;38.3;;;24.2;;
51194;SDS011;37259;49.972;19.850;2022-12-19T04:54:20;38.3;;;24.2;;
51194;SDS011;37259;49.972;19.850;2022-12-19T04:55:20;38.3;;;24.2;;
51194;SDS011;37259;49.972;19.850;2022-12-19T04:56:20;38.3;;;24.2;;
51194;SDS011;37259;49.972;19.850;2022-12-19T04:57:20;38.3;;;24.2;;
51194;SDS011;37259;49.972;19.850;2022-12-19T04:58:20;38.3;;;24.2;;
51194;SDS011;37259;49.972;19.850;2022-12-19T04:59:20;38.3;;;24.2;;
51194;SDS011;37259;49.972;19.850;2022-12-19T05:00:20;38.3;;;24.2;;
51194;SDS011;37259;49.972;19.850;2022-12-19T05:01:20;38.3;;;24.2;;
51194;SDS011;37259;49.972;19.850;2022-12-19T05:02:20;38.3;;;24.2;;
51194;SDS011;37259;49.972;19.850;2022-12-19T05:03:20;38.3;;;24.2;;
51194;SDS011;37259;49.972;19.850;2022-12-19T05:04:20;38.3;;;24.2;;
51194;SDS011;37259;49.972;19.850;2022-12-19T05:05:20;38.3;;;24.2;;
51194;SDS011;37259;49.972;19.850;2022-12-19T05:06:20;38.3;;;24.2;;
51194;SDS011;37259;49.972;19.850;2022-12-19T05:07:20;38.3;;;24.2;;
51194;SDS011;37259;49.972;19.850;2022-12-19T05:08:20;38.3;;;24.2;;
51194;SDS011;37259;49.972;19.850;2022-12-19T05:09:20;38.3;;;24.2;;
51194;SDS011;37259;49.972;19.850;2022-12-19T05:10:20;38.3;;;24.2;;
51194;SDS011;37259;49.972;19.850;2022-12-19T05:11:20;38.3;;;24.2;;
51194;SDS011;37259;49.972;19.850;2022-12-19T05:12:20;38.3;;;24.2;;
51194;SDS011;37259;49.972;19.850;2022-12-19T05:13:20;35.5;;;22.6;;
51194;SDS011;37259;49.972;19.850;2022-12-19T05:14:20;35.5;;;22.6;;
51194;SDS011;37259;49.972;19.850;2022-12-19T05:15:20;35.5;;;22.6;;
51194;SDS011;37259;49.972;19.850;2022-12-19T05:16:20;35.5;;;22.6;;
51194;SDS011;37259;49.972;19.850;2022-12-19T05:17:20;35.5;;;22.6;;
51194;SDS011;37259;49.972;19.850;2022-12-19T05:18:20;35.5;;;22.6;;
51194;SDS011;37259;49.972;19.850;2022-12-19T05:19:20;35.5;;;22.6;;
51194;SDS011;37259;49.972;19.850;2022-12-19T05:20:20;35.5;;;22.6;;
51194;SDS011;37259;49.972;19.850;2022-12-19T05:21:20;35.5;;;22.6;;
51194;SDS011;37259;49.972;19.850;2022-12-19T05:22:20;35.5;;;22.6;;
51194;SDS011;37259;49.972;19.850;2022-12-19T05:23:20;35.5;;;22.6;;
51194;SDS011;37259;49.972;19.850;2022-12-19T05:24:20;35.5;;;22.6;;
51194;SDS011;37259;49.972;19.850;2022-12-19T05:25:20;35.5;;;22.6;;
51194;SDS011;37259;49.972;19.850;2022-12-19T05:26:20;35.5;;;22.6;;
51194;SDS011;37259;49.972;19.850;2022-12-19T05:27:20;35.5;;;22.6;;
51194;SDS011;37259;49.972;19.850;2022-12-19T05:28:20;35.5;;;22.6;;
51194;SDS011;37259;49.972;19.850;2022-12-19T05:29:20;35.5;;;22.6;;
51194;SDS011;37259;49.972;19.850;2022-12-19T05:30:20;35.5;;;22.6;;
51194;SDS011;37259;49.972;19.850;2022-12-19T05:31:20;35.5;;;22.6;;
51194;SDS011;37259;49.972;19.850;2022-12-19T05:32:20;35.5;;;22.6;;
51194;SDS011;37259;49.972;19.850;2022-12-19T05:33:20;35.5;;;22.6;;
51194;SDS011;37259;49.972;19.850;2022-12-19T05:34:20;35.5;;;22.6;;
51194;SDS011;37259;49.972;19.850;2022-12-19T05:35:20;35.5;;;22.6;;
51194;SDS011;37259;49.972;19.850;2022-12-19T05:36:20;35.5;;;22.6;;
51194;SDS011;37259;49.972;19.850;2022-12-19T05:37:20;35.5;;;22.6;;
51194;SDS011;37259;49.972;19.850;2022-12-19T05:38:20;35.5;;;22.6;;
51194;SDS011;37259;49.972;19.850;2022-12-19T05:39:20;35.5;;;22.6;;
51194;SDS011;37259;49.972;19.850;2022-12-19T05:40:20;35.5;;;22.6;;
51194;SDS011;37259;49.972;19.850;2022-12-19T05:41:20;35.5;;;22.6;;
51194;SDS011;37259;49.972;19.850;2022-12-19T05:42:20;35.5;;;22.6;;
51194;SDS011;37259;49.972;19.850;2022-12-19T05:43:20;45.1;;;25.1;;
51194;SDS011;37259;49.972;19.850;2022-12-19T05:44:20;45.1;;;25.1;;
51194;SDS011;37259;49.972;19.850;2022-12-19T05:45:20;45.1;;;25.1;;
51194;SDS011;37259;49.972;19.850;2022-12-19T05:46:20;45.1;;;25.1;;
51194;SDS011;37259;49.972;19.850;2022-12-19T05:47:20;45.1;;;25.1;;
51194;SDS011;37259;49.972;19.850;2022-12-19T05:48:20;45.1;;;25.1;;
51194;SDS011;37259;49.972;19.850;2022-12-19T05:49:20;45.1;;;25.1;;
51194;SDS011;37259;49.972;19.850;2022-12-19T05:50:20;45.1;;;25.1;;
51194;SDS011;37259;49.972;19.850;2022-12-19T05:51:20;45.1;;;25.1;;
51194;SDS011;37259;49.972;19.850;2022-12-19T05:52:20;45.1;;;25.1;;
51194;SDS011;37259;49.972;19.850;2022-12-19T05:53:20;45.1;;;25.1;;
51194;SDS011;37259;49.972;19.850;2022-12-19T05:54:20;45.1;;;25.1;;
51194;SDS011;37259;49.972;19.850;2022-12-19T05:55:20;45.1;;;25.1;;
51194;SDS011;37259;49.972;19.850;2022-12-19T05:56:21;45.1;;;25.1;;
51194;SDS011;37259;49.972;19.850;2022-12-19T05:57:20;45.1;;;25.1;;